Time;durP1;ratioP1;P1;durP2;ratioP2;P2;SDS_P1;SDS_P2;PMS_P1;PMS_P2;Temp;Humidity;BMP_temperature;BMP_pressure;BME280_temperature;BME280_humidity;BME280_pressure;Samples;Min_cycle;Max_cycle;Signal;HPM_P1;HPM_P2
2021/12/09 00:01:41;;;;;;;11.52;5.40;;;;;;;;;;5107012;28;20061;-70
2021/12/09 00:04:11;;;;;;;12.13;5.60;;;;;;;;;;5112421;28;20417;-70
2021/12/09 00:06:37;;;;;;;12.05;5.32;;;;;;;;;;5110056;28;20755;-70
2021/12/09 00:09:08;;;;;;;12.55;5.35;;;;;;;;;;5102419;28;20090;-70
2021/12/09 00:11:42;;;;;;;10.15;5.72;;;;;;;;;;5102665;28;20514;-70
2021/12/09 00:14:08;;;;;;;12.85;5.90;;;;;;;;;;5081952;28;20048;-70
2021/12/09 00:16:34;;;;;;;14.60;5.68;;;;;;;;;;5107446;28;20043;-70
2021/12/09 00:19:00;;;;;;;9.35;5.50;;;;;;;;;;5108329;28;20113;-69
2021/12/09 00:21:27;;;;;;;9.52;5.70;;;;;;;;;;5107610;28;20032;-70
2021/12/09 00:23:52;;;;;;;11.38;5.82;;;;;;;;;;5109318;28;20396;-70
2021/12/09 00:26:18;;;;;;;11.57;5.40;;;;;;;;;;5105511;28;20119;-70
2021/12/09 00:28:45;;;;;;;11.80;5.70;;;;;;;;;;5112065;28;20425;-70
2021/12/09 00:31:10;;;;;;;11.00;5.68;;;;;;;;;;5095147;28;20514;-70
2021/12/09 00:33:42;;;;;;;12.93;5.50;;;;;;;;;;5107357;28;20036;-70
2021/12/09 00:36:08;;;;;;;10.55;5.13;;;;;;;;;;5105191;28;20036;-70
2021/12/09 00:38:38;;;;;;;10.85;5.50;;;;;;;;;;5105413;28;20039;-70
2021/12/09 00:41:08;;;;;;;11.57;5.45;;;;;;;;;;5111963;28;20124;-70
2021/12/09 00:43:34;;;;;;;13.82;6.10;;;;;;;;;;5093559;28;20504;-70
2021/12/09 00:46:00;;;;;;;11.88;5.90;;;;;;;;;;5095621;28;20394;-70
2021/12/09 00:48:27;;;;;;;13.90;5.88;;;;;;;;;;5104393;28;20046;-70
2021/12/09 00:50:54;;;;;;;7.57;5.97;;;;;;;;;;5107180;28;20054;-69
2021/12/09 00:53:20;;;;;;;11.63;5.32;;;;;;;;;;5112645;28;20074;-70
2021/12/09 00:55:46;;;;;;;10.88;5.72;;;;;;;;;;5108559;28;20577;-70
2021/12/09 00:58:12;;;;;;;9.60;5.82;;;;;;;;;;5103328;28;20063;-70
2021/12/09 01:00:38;;;;;;;11.80;5.03;;;;;;;;;;5102046;28;20039;-70
2021/12/09 01:03:04;;;;;;;14.55;5.65;;;;;;;;;;5103233;28;20036;-70
2021/12/09 01:05:31;;;;;;;9.48;5.45;;;;;;;;;;5106114;28;20039;-70
2021/12/09 01:07:57;;;;;;;10.38;6.18;;;;;;;;;;5103041;28;20071;-70
2021/12/09 01:10:24;;;;;;;11.55;6.03;;;;;;;;;;5099146;28;20122;-70
2021/12/09 01:12:50;;;;;;;9.07;6.30;;;;;;;;;;5092622;28;20047;-70
2021/12/09 01:15:17;;;;;;;11.38;6.10;;;;;;;;;;5100980;28;20043;-70
2021/12/09 01:17:43;;;;;;;9.57;5.80;;;;;;;;;;5101590;28;20043;-70
2021/12/09 01:20:10;;;;;;;15.63;6.20;;;;;;;;;;5104264;28;20040;-70
2021/12/09 01:22:41;;;;;;;13.18;6.30;;;;;;;;;;5102950;28;20034;-70
2021/12/09 01:25:08;;;;;;;14.68;6.68;;;;;;;;;;5103358;28;20047;-70
2021/12/09 01:27:37;;;;;;;12.57;6.07;;;;;;;;;;5104118;28;20046;-70
2021/12/09 01:30:09;;;;;;;8.52;5.85;;;;;;;;;;5102918;28;20458;-70
2021/12/09 01:32:35;;;;;;;13.35;6.50;;;;;;;;;;5104290;28;20043;-70
2021/12/09 01:35:01;;;;;;;12.55;6.63;;;;;;;;;;5103609;28;20047;-70
2021/12/09 01:37:27;;;;;;;13.32;6.30;;;;;;;;;;5104548;28;20051;-70
2021/12/09 01:39:53;;;;;;;15.77;6.90;;;;;;;;;;5104620;28;20036;-70
2021/12/09 01:42:20;;;;;;;13.57;6.35;;;;;;;;;;5105643;28;20042;-70
2021/12/09 01:44:46;;;;;;;12.98;6.75;;;;;;;;;;5096332;28;20036;-70
2021/12/09 01:47:12;;;;;;;12.35;6.32;;;;;;;;;;5099757;28;20036;-69
2021/12/09 01:49:38;;;;;;;12.70;6.82;;;;;;;;;;5098731;28;20043;-70
2021/12/09 01:52:05;;;;;;;14.50;6.35;;;;;;;;;;5105445;28;20040;-70
2021/12/09 01:54:31;;;;;;;14.80;6.53;;;;;;;;;;5109574;28;20039;-70
2021/12/09 01:56:57;;;;;;;15.48;6.95;;;;;;;;;;5091271;28;20040;-70
2021/12/09 01:59:23;;;;;;;10.82;6.68;;;;;;;;;;5103800;28;20035;-70
2021/12/09 02:01:49;;;;;;;12.73;6.20;;;;;;;;;;5095067;28;20112;-70
2021/12/09 02:04:15;;;;;;;14.07;6.78;;;;;;;;;;5095281;28;20097;-70
2021/12/09 02:06:42;;;;;;;13.52;7.18;;;;;;;;;;5109114;28;20039;-70
2021/12/09 02:09:12;;;;;;;12.93;6.35;;;;;;;;;;5113064;28;20051;-70
2021/12/09 02:11:38;;;;;;;15.60;7.25;;;;;;;;;;5110289;28;20557;-70
2021/12/09 02:14:04;;;;;;;14.65;7.20;;;;;;;;;;5108406;28;20087;-70
2021/12/09 02:16:31;;;;;;;15.15;7.05;;;;;;;;;;5115719;28;20039;-70
2021/12/09 02:18:57;;;;;;;10.52;7.28;;;;;;;;;;5114474;28;20036;-70
2021/12/09 02:21:25;;;;;;;12.20;7.25;;;;;;;;;;5114846;28;20075;-70
2021/12/09 02:23:54;;;;;;;13.93;6.90;;;;;;;;;;5111762;28;20032;-69
2021/12/09 02:26:22;;;;;;;13.35;7.07;;;;;;;;;;5114515;28;20075;-70
2021/12/09 02:28:49;;;;;;;11.65;7.47;;;;;;;;;;5114330;28;20866;-70
2021/12/09 02:31:15;;;;;;;17.65;8.32;;;;;;;;;;5094810;28;20042;-69
2021/12/09 02:33:41;;;;;;;14.35;7.53;;;;;;;;;;5111139;28;20071;-70
2021/12/09 02:36:07;;;;;;;13.13;7.43;;;;;;;;;;5110965;28;20039;-70
2021/12/09 02:38:41;;;;;;;15.25;7.30;;;;;;;;;;5114826;28;20043;-69
2021/12/09 02:41:09;;;;;;;12.57;7.40;;;;;;;;;;5110773;27;20097;-70
2021/12/09 02:43:35;;;;;;;13.23;7.57;;;;;;;;;;5114398;28;20458;-70
2021/12/09 02:46:02;;;;;;;17.98;8.40;;;;;;;;;;5104945;28;20027;-70
2021/12/09 02:48:28;;;;;;;14.93;7.72;;;;;;;;;;5087251;28;20142;-70
2021/12/09 02:50:54;;;;;;;14.07;7.78;;;;;;;;;;5113217;28;20047;-70
2021/12/09 02:53:21;;;;;;;14.98;8.32;;;;;;;;;;5103765;28;20055;-70
2021/12/09 02:55:47;;;;;;;17.23;8.35;;;;;;;;;;5103562;28;20051;-69
2021/12/09 02:58:13;;;;;;;17.80;8.50;;;;;;;;;;5108373;28;20039;-69
2021/12/09 03:01:02;;;;;;;13.60;8.50;;;;;;;;;;5102166;27;20036;-70
2021/12/09 03:03:28;;;;;;;14.18;8.13;;;;;;;;;;5104424;28;20047;-69
2021/12/09 03:05:55;;;;;;;13.98;8.55;;;;;;;;;;5109960;28;20042;-69
2021/12/09 03:08:33;;;;;;;16.10;8.88;;;;;;;;;;5093843;28;20103;-69
2021/12/09 03:10:59;;;;;;;14.18;8.38;;;;;;;;;;5103954;28;20036;-69
2021/12/09 03:13:25;;;;;;;17.73;8.68;;;;;;;;;;5106120;28;20043;-69
2021/12/09 03:15:51;;;;;;;16.55;8.63;;;;;;;;;;5113449;28;20032;-70
2021/12/09 03:18:18;;;;;;;17.73;9.82;;;;;;;;;;5113762;28;20132;-69
2021/12/09 03:20:44;;;;;;;15.98;8.63;;;;;;;;;;5102073;28;20051;-69
2021/12/09 03:23:10;;;;;;;14.88;9.07;;;;;;;;;;5096343;28;20036;-69
2021/12/09 03:25:36;;;;;;;17.23;9.48;;;;;;;;;;5105582;28;20043;-69
2021/12/09 03:28:02;;;;;;;17.90;9.77;;;;;;;;;;5114243;28;20039;-69
2021/12/09 03:30:28;;;;;;;16.85;9.38;;;;;;;;;;5113597;28;20047;-69
2021/12/09 03:32:56;;;;;;;17.25;9.45;;;;;;;;;;5113030;28;20042;-69
2021/12/09 03:35:22;;;;;;;19.55;9.60;;;;;;;;;;5102822;28;20044;-69
2021/12/09 03:37:49;;;;;;;16.58;8.73;;;;;;;;;;5093606;28;20040;-69
2021/12/09 03:40:15;;;;;;;17.25;8.95;;;;;;;;;;5107334;28;20054;-69
2021/12/09 03:42:43;;;;;;;17.25;9.45;;;;;;;;;;5101329;28;20032;-69
2021/12/09 03:45:09;;;;;;;15.52;9.32;;;;;;;;;;5111860;28;20071;-69
2021/12/09 03:47:35;;;;;;;13.40;9.27;;;;;;;;;;5113059;28;20038;-69
2021/12/09 03:50:02;;;;;;;18.98;9.57;;;;;;;;;;5094838;28;20127;-69
2021/12/09 03:52:28;;;;;;;14.05;8.80;;;;;;;;;;5101282;28;20576;-69
2021/12/09 03:54:54;;;;;;;18.90;9.73;;;;;;;;;;5107119;28;20040;-69
2021/12/09 03:57:21;;;;;;;15.15;9.27;;;;;;;;;;5113490;28;20092;-69
2021/12/09 03:59:47;;;;;;;19.77;9.75;;;;;;;;;;5107774;28;20036;-69
2021/12/09 04:02:13;;;;;;;15.07;9.05;;;;;;;;;;5113205;28;20166;-69
2021/12/09 04:04:39;;;;;;;17.27;9.32;;;;;;;;;;5111321;28;20421;-69
2021/12/09 04:07:06;;;;;;;18.27;8.95;;;;;;;;;;5113366;28;20557;-69
2021/12/09 04:09:32;;;;;;;19.52;10.10;;;;;;;;;;5112875;28;20045;-69
2021/12/09 04:11:58;;;;;;;21.10;10.13;;;;;;;;;;5109877;28;20115;-69
2021/12/09 04:14:24;;;;;;;21.05;10.10;;;;;;;;;;5112838;28;20043;-69
2021/12/09 04:16:51;;;;;;;18.33;9.35;;;;;;;;;;5107696;28;20032;-69
2021/12/09 04:19:17;;;;;;;16.50;9.32;;;;;;;;;;5098292;28;20047;-69
2021/12/09 04:21:44;;;;;;;17.45;9.65;;;;;;;;;;5106067;28;20397;-69
2021/12/09 04:24:11;;;;;;;19.95;10.07;;;;;;;;;;5103020;28;20048;-69
2021/12/09 04:26:39;;;;;;;22.27;10.23;;;;;;;;;;5094382;28;20402;-69
2021/12/09 04:29:06;;;;;;;18.75;9.43;;;;;;;;;;5105151;28;20040;-69
2021/12/09 04:31:32;;;;;;;15.05;9.15;;;;;;;;;;5097799;28;20130;-69
2021/12/09 04:33:59;;;;;;;18.60;9.90;;;;;;;;;;5102983;28;20044;-68
2021/12/09 04:36:26;;;;;;;20.55;9.40;;;;;;;;;;5106235;28;20035;-69
2021/12/09 04:38:52;;;;;;;19.85;10.13;;;;;;;;;;5098566;28;20036;-68
2021/12/09 04:41:19;;;;;;;15.65;9.13;;;;;;;;;;5104293;27;20454;-69
2021/12/09 04:43:45;;;;;;;17.80;9.60;;;;;;;;;;5108445;28;20119;-69
2021/12/09 04:46:11;;;;;;;18.85;9.57;;;;;;;;;;5106395;28;20040;-68
2021/12/09 04:48:37;;;;;;;17.20;10.38;;;;;;;;;;5089131;28;20040;-69
2021/12/09 04:51:04;;;;;;;16.30;10.18;;;;;;;;;;5101436;28;20398;-68
2021/12/09 04:53:30;;;;;;;19.00;9.43;;;;;;;;;;5099975;28;20512;-69
2021/12/09 04:55:56;;;;;;;17.38;9.60;;;;;;;;;;5106611;28;20044;-69
2021/12/09 04:58:23;;;;;;;20.52;9.85;;;;;;;;;;5095827;28;20040;-69
2021/12/09 05:00:49;;;;;;;19.15;10.30;;;;;;;;;;5104722;28;20047;-69
2021/12/09 05:03:16;;;;;;;19.90;10.07;;;;;;;;;;5111779;28;20137;-69
2021/12/09 05:05:45;;;;;;;16.45;10.07;;;;;;;;;;5104951;28;20406;-68
2021/12/09 05:08:12;;;;;;;20.88;10.90;;;;;;;;;;5084410;28;20058;-69
2021/12/09 05:13:36;;;;;;;21.23;10.15;;;;;;;;;;5093429;28;20405;-69
2021/12/09 05:16:03;;;;;;;17.98;10.70;;;;;;;;;;5108556;28;20036;-69
2021/12/09 05:18:31;;;;;;;20.92;10.60;;;;;;;;;;5115009;22;20048;-61
2021/12/09 05:20:58;;;;;;;23.42;10.43;;;;;;;;;;5061050;28;20548;-61
2021/12/09 05:23:24;;;;;;;16.90;10.95;;;;;;;;;;5063582;28;20071;-61
2021/12/09 05:25:50;;;;;;;20.85;10.60;;;;;;;;;;5090426;28;20523;-61
2021/12/09 05:28:18;;;;;;;19.30;9.60;;;;;;;;;;5085043;28;20122;-61
2021/12/09 05:33:32;;;;;;;17.90;10.13;;;;;;;;;;5080649;28;20460;-61
2021/12/09 05:35:58;;;;;;;19.17;9.48;;;;;;;;;;5076942;28;20497;-61
2021/12/09 05:38:24;;;;;;;17.40;9.55;;;;;;;;;;5079439;28;20040;-61
2021/12/09 05:40:50;;;;;;;17.75;10.18;;;;;;;;;;5086658;28;20028;-61
2021/12/09 05:43:16;;;;;;;19.05;9.32;;;;;;;;;;5078031;28;20123;-61
2021/12/09 05:45:43;;;;;;;16.88;10.45;;;;;;;;;;5081812;28;20055;-61
2021/12/09 05:48:12;;;;;;;17.33;9.52;;;;;;;;;;5094062;28;20038;-61
2021/12/09 05:50:40;;;;;;;17.17;9.68;;;;;;;;;;5085019;28;20088;-61
2021/12/09 05:53:06;;;;;;;21.52;10.45;;;;;;;;;;5085253;28;20567;-61
2021/12/09 05:55:32;;;;;;;18.52;10.00;;;;;;;;;;5066732;28;20051;-61
2021/12/09 05:57:58;;;;;;;18.85;10.00;;;;;;;;;;5077959;28;20045;-61
2021/12/09 06:00:24;;;;;;;17.42;11.05;;;;;;;;;;5085451;28;20097;-61
2021/12/09 06:02:50;;;;;;;18.40;10.07;;;;;;;;;;5085984;28;20409;-61
2021/12/09 06:05:16;;;;;;;20.45;9.23;;;;;;;;;;5083921;28;20036;-61
2021/12/09 06:07:42;;;;;;;16.25;10.02;;;;;;;;;;5084296;28;20106;-61
2021/12/09 06:10:09;;;;;;;17.17;10.55;;;;;;;;;;5074381;28;20489;-61
2021/12/09 06:12:36;;;;;;;20.58;10.68;;;;;;;;;;5092859;28;20040;-61
2021/12/09 06:15:03;;;;;;;19.63;11.00;;;;;;;;;;5070888;28;20525;-61
2021/12/09 06:17:29;;;;;;;21.02;10.45;;;;;;;;;;5071121;28;20047;-61
2021/12/09 06:19:55;;;;;;;19.73;10.65;;;;;;;;;;5085471;28;20097;-61
2021/12/09 06:22:21;;;;;;;20.50;10.15;;;;;;;;;;5092705;28;20493;-61
2021/12/09 06:24:47;;;;;;;21.45;10.43;;;;;;;;;;5086761;28;20036;-61
2021/12/09 06:27:13;;;;;;;21.55;11.07;;;;;;;;;;5068404;28;20036;-63
2021/12/09 06:29:39;;;;;;;21.33;11.18;;;;;;;;;;5093433;28;20096;-63
2021/12/09 06:32:05;;;;;;;21.27;10.95;;;;;;;;;;5086035;28;20519;-63
2021/12/09 06:34:31;;;;;;;19.58;9.75;;;;;;;;;;5074774;28;20519;-63
2021/12/09 06:36:57;;;;;;;18.25;11.63;;;;;;;;;;5079257;28;20047;-63
2021/12/09 06:39:24;;;;;;;18.67;10.27;;;;;;;;;;5090639;28;20036;-63
2021/12/09 06:41:50;;;;;;;17.42;10.23;;;;;;;;;;5072978;28;20043;-63
2021/12/09 06:44:16;;;;;;;74.00;15.18;;;;;;;;;;5091551;28;20028;-63
2021/12/09 06:46:41;;;;;;;19.20;10.63;;;;;;;;;;5074161;28;20039;-63
2021/12/09 06:49:08;;;;;;;653.63;73.68;;;;;;;;;;5090766;28;20044;-63
2021/12/09 06:51:34;;;;;;;21.67;10.43;;;;;;;;;;5088306;28;20044;-63
2021/12/09 06:54:00;;;;;;;16.25;9.60;;;;;;;;;;5090271;28;20536;-63
2021/12/09 06:56:27;;;;;;;18.45;10.25;;;;;;;;;;5093011;28;20036;-63
2021/12/09 06:58:53;;;;;;;25.75;10.60;;;;;;;;;;5087687;28;20402;-63
2021/12/09 07:01:20;;;;;;;19.02;10.45;;;;;;;;;;5093726;28;20044;-63
2021/12/09 07:03:46;;;;;;;17.85;9.88;;;;;;;;;;5094537;28;20043;-63
2021/12/09 07:06:12;;;;;;;19.63;10.15;;;;;;;;;;5091221;28;20036;-63
2021/12/09 07:08:45;;;;;;;19.98;10.60;;;;;;;;;;5070614;28;20086;-63
2021/12/09 07:11:11;;;;;;;26.35;11.38;;;;;;;;;;5086353;28;20040;-63
2021/12/09 07:13:37;;;;;;;20.65;11.02;;;;;;;;;;5081781;28;20037;-63
2021/12/09 07:16:03;;;;;;;22.38;10.40;;;;;;;;;;5074594;28;20036;-63
2021/12/09 07:18:30;;;;;;;21.38;10.63;;;;;;;;;;5093843;28;20036;-63
2021/12/09 07:20:56;;;;;;;16.05;9.65;;;;;;;;;;5093370;28;20108;-63
2021/12/09 07:23:23;;;;;;;20.40;10.35;;;;;;;;;;5074977;28;20028;-63
2021/12/09 07:25:49;;;;;;;21.92;10.57;;;;;;;;;;5079240;28;20028;-63
2021/12/09 07:28:15;;;;;;;18.42;10.20;;;;;;;;;;5084475;28;20465;-63
2021/12/09 07:30:42;;;;;;;18.55;9.50;;;;;;;;;;5083975;28;20048;-64
2021/12/09 07:33:08;;;;;;;21.38;10.27;;;;;;;;;;5074008;28;20059;-63
2021/12/09 07:35:34;;;;;;;22.08;10.95;;;;;;;;;;5081866;28;20093;-63
2021/12/09 07:38:01;;;;;;;27.67;11.52;;;;;;;;;;5089697;28;20590;-64
2021/12/09 07:40:27;;;;;;;20.27;10.50;;;;;;;;;;5092388;28;20505;-64
2021/12/09 07:42:53;;;;;;;23.55;10.07;;;;;;;;;;5082145;28;20670;-64
2021/12/09 07:45:20;;;;;;;18.02;10.63;;;;;;;;;;5073221;28;20364;-63
2021/12/09 07:47:46;;;;;;;18.92;9.65;;;;;;;;;;5080871;28;20135;-64
2021/12/09 07:50:14;;;;;;;17.35;9.60;;;;;;;;;;5091109;28;20039;-64
2021/12/09 07:52:44;;;;;;;17.45;9.82;;;;;;;;;;5082884;28;20064;-63
2021/12/09 07:55:11;;;;;;;26.50;10.70;;;;;;;;;;5066624;28;20032;-63
2021/12/09 07:57:38;;;;;;;21.88;10.20;;;;;;;;;;5083309;28;20045;-64
2021/12/09 08:00:06;;;;;;;21.45;10.23;;;;;;;;;;5086220;28;20088;-64
2021/12/09 08:02:32;;;;;;;20.50;9.90;;;;;;;;;;5085017;28;20050;-64
2021/12/09 08:04:58;;;;;;;16.63;9.23;;;;;;;;;;5068794;28;20036;-64
2021/12/09 08:07:24;;;;;;;19.08;10.02;;;;;;;;;;5066854;28;20115;-64
2021/12/09 08:09:51;;;;;;;19.85;9.82;;;;;;;;;;5082054;28;20096;-64
2021/12/09 08:12:18;;;;;;;19.23;10.15;;;;;;;;;;5077210;28;20038;-64
2021/12/09 08:14:44;;;;;;;18.95;10.25;;;;;;;;;;5077555;28;20500;-63
2021/12/09 08:17:33;;;;;;;22.55;10.75;;;;;;;;;;5088475;28;20371;-64
2021/12/09 08:19:59;;;;;;;19.30;9.23;;;;;;;;;;5086597;28;20055;-64
2021/12/09 08:22:25;;;;;;;18.75;10.60;;;;;;;;;;5078192;28;21361;-64
2021/12/09 08:24:55;;;;;;;19.55;9.80;;;;;;;;;;5069391;28;20658;-63
2021/12/09 08:27:21;;;;;;;19.25;10.45;;;;;;;;;;5068262;28;20463;-64
2021/12/09 08:29:47;;;;;;;20.83;10.32;;;;;;;;;;5068737;28;20443;-64
2021/12/09 08:32:13;;;;;;;23.08;10.23;;;;;;;;;;5078814;28;20127;-64
2021/12/09 08:34:39;;;;;;;20.77;9.90;;;;;;;;;;5083827;28;20036;-63
2021/12/09 08:37:05;;;;;;;17.15;9.07;;;;;;;;;;5062588;28;20046;-64
2021/12/09 08:39:31;;;;;;;17.95;9.50;;;;;;;;;;5081433;28;20052;-63
2021/12/09 08:41:57;;;;;;;16.42;9.55;;;;;;;;;;5077539;28;20040;-61
2021/12/09 08:44:23;;;;;;;17.08;9.13;;;;;;;;;;5085158;28;20098;-61
2021/12/09 08:46:50;;;;;;;17.83;9.52;;;;;;;;;;5081161;28;20099;-62
2021/12/09 08:49:16;;;;;;;15.48;9.02;;;;;;;;;;5061676;28;20489;-62
2021/12/09 08:51:42;;;;;;;14.93;9.32;;;;;;;;;;5084190;28;20036;-61
2021/12/09 08:54:08;;;;;;;20.35;10.05;;;;;;;;;;5088405;28;20155;-61
2021/12/09 08:56:36;;;;;;;19.48;9.38;;;;;;;;;;5079378;28;20119;-61
2021/12/09 08:59:03;;;;;;;19.45;9.55;;;;;;;;;;5085252;28;20044;-61
2021/12/09 09:01:29;;;;;;;17.55;10.07;;;;;;;;;;5078046;28;20036;-62
2021/12/09 09:03:55;;;;;;;18.40;8.80;;;;;;;;;;5089625;28;20104;-62
2021/12/09 09:06:22;;;;;;;20.42;9.40;;;;;;;;;;5080350;28;20118;-61
2021/12/09 09:08:51;;;;;;;17.65;9.07;;;;;;;;;;5083381;28;20039;-61
2021/12/09 09:11:17;;;;;;;17.58;9.00;;;;;;;;;;5079371;28;20042;-61
2021/12/09 09:13:43;;;;;;;15.80;8.70;;;;;;;;;;5068376;28;20040;-61
2021/12/09 09:16:09;;;;;;;20.55;8.43;;;;;;;;;;5084068;28;20054;-62
2021/12/09 09:18:35;;;;;;;17.58;8.00;;;;;;;;;;5069374;28;20047;-62
2021/12/09 09:21:01;;;;;;;18.83;8.68;;;;;;;;;;5088358;28;20040;-61
2021/12/09 09:23:27;;;;;;;16.45;9.00;;;;;;;;;;5079204;28;20063;-61
2021/12/09 09:25:53;;;;;;;20.58;9.10;;;;;;;;;;5082103;28;20063;-61
2021/12/09 09:28:19;;;;;;;13.48;7.70;;;;;;;;;;5058307;28;20510;-61
2021/12/09 09:30:52;;;;;;;17.70;8.00;;;;;;;;;;5078475;28;20386;-61
2021/12/09 09:33:19;;;;;;;18.58;7.95;;;;;;;;;;5078646;28;20044;-62
2021/12/09 09:35:45;;;;;;;13.30;7.85;;;;;;;;;;5081635;28;20046;-63
2021/12/09 09:38:11;;;;;;;17.45;7.57;;;;;;;;;;5062325;28;20087;-61
2021/12/09 09:40:49;;;;;;;13.68;7.53;;;;;;;;;;5061516;28;20036;-61
2021/12/09 09:43:29;;;;;;;15.45;8.02;;;;;;;;;;5062535;28;20047;-61
2021/12/09 09:45:56;;;;;;;16.83;7.85;;;;;;;;;;5081061;28;20036;-61
2021/12/09 09:48:22;;;;;;;13.57;7.18;;;;;;;;;;5058652;28;20052;-61
2021/12/09 09:50:49;;;;;;;16.48;7.53;;;;;;;;;;5077418;28;20521;-61
2021/12/09 09:53:16;;;;;;;14.95;6.95;;;;;;;;;;5072737;28;20040;-61
2021/12/09 09:55:44;;;;;;;11.98;6.95;;;;;;;;;;5080647;28;20068;-61
2021/12/09 09:58:10;;;;;;;17.52;7.97;;;;;;;;;;5081709;28;20043;-61
2021/12/09 10:00:36;;;;;;;13.48;7.28;;;;;;;;;;5068596;28;20109;-61
2021/12/09 10:03:06;;;;;;;14.10;7.57;;;;;;;;;;5086945;28;20032;-61
2021/12/09 10:05:36;;;;;;;13.73;7.45;;;;;;;;;;5081750;28;20062;-61
2021/12/09 10:08:03;;;;;;;13.35;7.90;;;;;;;;;;5070225;28;20053;-61
2021/12/09 10:10:29;;;;;;;18.10;7.30;;;;;;;;;;5058987;28;20508;-61
2021/12/09 10:13:04;;;;;;;15.35;7.45;;;;;;;;;;5061541;28;20044;-61
2021/12/09 10:15:37;;;;;;;13.75;6.93;;;;;;;;;;5080212;28;20637;-61
2021/12/09 10:18:04;;;;;;;16.50;7.28;;;;;;;;;;5063516;28;20048;-61
2021/12/09 10:20:50;;;;;;;16.88;6.82;;;;;;;;;;5063319;28;20540;-61
2021/12/09 10:23:45;;;;;;;15.35;7.18;;;;;;;;;;5058829;28;20044;-62
2021/12/09 10:26:20;;;;;;;14.13;7.13;;;;;;;;;;5058792;28;20040;-61
2021/12/09 10:29:15;;;;;;;11.57;6.55;;;;;;;;;;5062909;28;20136;-62
2021/12/09 10:31:51;;;;;;;15.75;7.28;;;;;;;;;;5058350;28;20048;-62
2021/12/09 10:34:34;;;;;;;16.83;7.63;;;;;;;;;;5089601;28;20047;-61
2021/12/09 10:37:00;;;;;;;13.88;6.68;;;;;;;;;;5067024;28;20039;-61
2021/12/09 10:39:37;;;;;;;11.40;6.45;;;;;;;;;;5070787;28;20044;-61
2021/12/09 10:42:08;;;;;;;17.77;6.97;;;;;;;;;;5071468;28;20063;-61
2021/12/09 10:44:36;;;;;;;15.23;6.97;;;;;;;;;;5064852;28;20044;-61
2021/12/09 10:47:12;;;;;;;14.18;6.80;;;;;;;;;;5065826;28;20051;-61
2021/12/09 10:49:49;;;;;;;16.80;7.00;;;;;;;;;;5063581;28;20092;-61
2021/12/09 10:52:19;;;;;;;13.38;7.40;;;;;;;;;;5067364;28;20122;-61
2021/12/09 10:54:45;;;;;;;15.35;7.55;;;;;;;;;;5061758;28;20040;-61
2021/12/09 10:57:25;;;;;;;18.40;8.88;;;;;;;;;;5042572;28;20051;-62
2021/12/09 10:59:51;;;;;;;17.55;7.93;;;;;;;;;;5069855;28;20049;-62
2021/12/09 11:02:17;;;;;;;15.68;8.20;;;;;;;;;;5064315;28;20032;-62
2021/12/09 11:05:04;;;;;;;18.40;8.35;;;;;;;;;;5064491;28;20048;-62
2021/12/09 11:07:31;;;;;;;20.75;8.68;;;;;;;;;;5066250;28;20040;-62
2021/12/09 11:10:14;;;;;;;12.38;7.72;;;;;;;;;;5067426;28;20954;-62
2021/12/09 11:12:47;;;;;;;13.52;6.55;;;;;;;;;;5084108;28;20085;-61
2021/12/09 11:15:15;;;;;;;17.77;8.85;;;;;;;;;;5056409;28;20419;-62
2021/12/09 11:17:42;;;;;;;14.98;8.20;;;;;;;;;;5079782;22;20024;-71
2021/12/09 11:20:09;;;;;;;16.25;8.40;;;;;;;;;;5110762;27;20044;-70
2021/12/09 11:22:37;;;;;;;18.88;9.05;;;;;;;;;;5097091;27;20032;-72
2021/12/09 11:25:06;;;;;;;19.75;9.15;;;;;;;;;;5108978;28;20459;-73
2021/12/09 11:27:32;;;;;;;16.25;8.70;;;;;;;;;;5102223;28;20043;-75
2021/12/09 11:30:10;;;;;;;16.38;8.93;;;;;;;;;;5104265;27;20036;-71
2021/12/09 11:32:44;;;;;;;18.50;8.95;;;;;;;;;;5098946;28;20039;-71
2021/12/09 11:35:15;;;;;;;15.43;8.63;;;;;;;;;;5107422;28;20036;-71
2021/12/09 11:40:14;;;;;;;20.08;9.48;;;;;;;;;;5105926;28;20054;-72
2021/12/09 11:42:47;;;;;;;13.80;9.05;;;;;;;;;;5103835;28;20093;-70
2021/12/09 11:45:15;;;;;;;15.48;8.85;;;;;;;;;;5099832;28;20166;-71
2021/12/09 11:47:42;;;;;;;19.80;9.07;;;;;;;;;;5100493;28;20115;-71
2021/12/09 11:50:10;;;;;;;13.95;8.50;;;;;;;;;;5108714;28;20043;-71
2021/12/09 11:52:37;;;;;;;19.23;9.68;;;;;;;;;;5105331;28;20035;-71
2021/12/09 11:55:05;;;;;;;17.73;8.45;;;;;;;;;;5104078;28;20044;-71
2021/12/09 11:57:41;;;;;;;18.85;9.55;;;;;;;;;;5102809;28;20758;-71
2021/12/09 12:11:31;;;;;;;18.30;9.55;;;;;;;;;;5112248;28;20043;-71
2021/12/09 12:16:59;;;;;;;15.77;9.07;;;;;;;;;;5113044;28;20043;-70
2021/12/09 12:19:45;;;;;;;13.93;9.27;;;;;;;;;;5112684;27;20097;-70
2021/12/09 12:22:42;;;;;;;15.77;8.35;;;;;;;;;;5112096;28;20039;-70
2021/12/09 12:25:24;;;;;;;23.48;9.90;;;;;;;;;;5106141;27;20110;-70
2021/12/09 12:28:14;;;;;;;19.60;9.90;;;;;;;;;;5116280;27;20034;-70
2021/12/09 12:33:50;;;;;;;20.80;9.32;;;;;;;;;;5114310;27;20402;-70
2021/12/09 12:36:38;;;;;;;16.77;8.93;;;;;;;;;;5102945;28;20039;-70
2021/12/09 12:39:18;;;;;;;23.73;9.07;;;;;;;;;;5119998;27;20039;-71
2021/12/09 12:42:02;;;;;;;21.15;9.95;;;;;;;;;;5125870;27;20115;-71
2021/12/09 12:44:30;;;;;;;22.02;10.93;;;;;;;;;;5112309;27;20114;-70
2021/12/09 12:47:16;;;;;;;25.23;10.98;;;;;;;;;;5112076;28;20404;-71
2021/12/09 12:50:02;;;;;;;19.17;9.98;;;;;;;;;;5109695;28;20047;-70
2021/12/09 12:52:31;;;;;;;21.15;11.27;;;;;;;;;;5109539;28;20051;-68
2021/12/09 12:55:11;;;;;;;22.98;10.52;;;;;;;;;;5111617;28;20047;-68
2021/12/09 12:57:40;;;;;;;23.03;10.43;;;;;;;;;;5108929;28;20044;-71
2021/12/09 13:00:10;;;;;;;22.23;10.63;;;;;;;;;;5111847;28;20772;-70
2021/12/09 13:05:34;;;;;;;23.88;10.63;;;;;;;;;;5110842;28;20142;-71
2021/12/09 13:08:27;;;;;;;26.25;11.50;;;;;;;;;;5111864;28;20036;-72
2021/12/09 13:11:12;;;;;;;27.85;11.70;;;;;;;;;;5111959;28;20043;-72
2021/12/09 13:14:03;;;;;;;24.33;11.70;;;;;;;;;;5112365;28;20044;-72
2021/12/09 13:21:41;;;;;;;21.98;12.23;;;;;;;;;;5112072;28;20036;-71
2021/12/09 13:24:25;;;;;;;25.13;10.70;;;;;;;;;;5091684;28;20050;-72
2021/12/09 13:27:09;;;;;;;27.88;12.38;;;;;;;;;;5092014;28;20406;-72
2021/12/09 13:30:06;;;;;;;25.05;11.25;;;;;;;;;;5107872;28;20044;-72
2021/12/09 13:35:50;;;;;;;26.95;11.65;;;;;;;;;;5069594;28;20626;-71
2021/12/09 13:45:54;;;;;;;21.85;10.48;;;;;;;;;;5112130;28;20118;-71
2021/12/09 13:46:40;;;;;;;28.85;11.45;;;;;;;;;;5111345;28;20431;-71
2021/12/09 13:49:34;;;;;;;22.40;10.85;;;;;;;;;;5111898;28;20055;-71
2021/12/09 13:54:03;;;;;;;18.58;10.52;;;;;;;;;;5110486;28;20083;-72
2021/12/09 13:54:52;;;;;;;20.33;11.20;;;;;;;;;;5111607;28;20079;-71
2021/12/09 13:57:28;;;;;;;21.73;10.85;;;;;;;;;;5096576;28;20044;-71
2021/12/09 13:59:54;;;;;;;27.42;11.77;;;;;;;;;;5091345;28;20051;-71
2021/12/09 14:02:22;;;;;;;21.80;11.25;;;;;;;;;;5100439;28;20031;-72
2021/12/09 14:04:48;;;;;;;21.10;11.45;;;;;;;;;;5112361;28;20054;-71
2021/12/09 14:07:22;;;;;;;25.00;12.43;;;;;;;;;;5097868;28;20031;-71
2021/12/09 14:09:59;;;;;;;24.17;12.00;;;;;;;;;;5116015;28;20047;-71
2021/12/09 14:12:34;;;;;;;23.23;11.73;;;;;;;;;;5115338;28;20039;-71
2021/12/09 14:15:09;;;;;;;23.15;11.65;;;;;;;;;;5115592;28;20051;-72
2021/12/09 14:17:38;;;;;;;27.35;12.30;;;;;;;;;;5115290;28;20043;-71
2021/12/09 14:20:06;;;;;;;27.23;12.35;;;;;;;;;;5115761;28;20071;-71
2021/12/09 14:22:39;;;;;;;23.50;12.40;;;;;;;;;;5115528;28;20097;-71
2021/12/09 14:25:20;;;;;;;22.67;11.75;;;;;;;;;;5113171;28;20530;-72
2021/12/09 14:27:49;;;;;;;27.90;12.18;;;;;;;;;;5115625;28;20039;-73
2021/12/09 14:30:15;;;;;;;24.25;11.73;;;;;;;;;;5096919;28;20088;-72
2021/12/09 14:32:46;;;;;;;22.38;11.38;;;;;;;;;;5109931;28;20035;-70
2021/12/09 14:35:19;;;;;;;26.58;13.02;;;;;;;;;;5112809;28;20370;-71
2021/12/09 14:37:48;;;;;;;26.73;12.13;;;;;;;;;;5111870;28;20039;-71
2021/12/09 14:40:17;;;;;;;20.90;11.73;;;;;;;;;;5104924;28;20039;-71
2021/12/09 14:43:02;;;;;;;22.00;11.52;;;;;;;;;;5104179;28;20493;-71
2021/12/09 14:45:30;;;;;;;26.08;12.60;;;;;;;;;;5098294;28;20131;-71
2021/12/09 14:48:00;;;;;;;20.75;11.57;;;;;;;;;;5105665;28;20035;-71
2021/12/09 14:50:31;;;;;;;21.50;12.07;;;;;;;;;;5105844;28;20105;-74
2021/12/09 14:52:57;;;;;;;23.88;12.98;;;;;;;;;;5109848;28;20378;-71
2021/12/09 14:55:25;;;;;;;22.13;11.80;;;;;;;;;;5111846;28;20050;-70
2021/12/09 14:57:56;;;;;;;20.10;11.93;;;;;;;;;;5107975;28;20183;-71
2021/12/09 15:00:33;;;;;;;22.67;11.37;;;;;;;;;;5106873;28;20483;-70
2021/12/09 15:03:01;;;;;;;23.33;11.63;;;;;;;;;;5099124;28;20296;-71
2021/12/09 15:05:28;;;;;;;21.38;12.13;;;;;;;;;;5108935;28;20036;-71
2021/12/09 15:08:03;;;;;;;22.90;11.40;;;;;;;;;;5110979;28;20055;-71
2021/12/09 15:10:33;;;;;;;24.00;11.68;;;;;;;;;;5110296;28;20058;-71
2021/12/09 15:13:00;;;;;;;22.80;11.85;;;;;;;;;;5104650;28;20451;-69
2021/12/09 15:15:27;;;;;;;20.90;11.80;;;;;;;;;;5102932;28;20685;-72
2021/12/09 15:17:57;;;;;;;22.65;11.90;;;;;;;;;;5103378;28;20089;-71
2021/12/09 15:20:32;;;;;;;18.40;10.27;;;;;;;;;;5105310;28;20036;-71